createdAt,value
2017-06-24T00:00:53.097Z,12.63
2017-06-24T00:03:19.396Z,13.73
2017-06-24T00:05:45.693Z,15.60
2017-06-24T00:08:12.005Z,13.13
2017-06-24T00:10:38.320Z,15.30
2017-06-24T00:13:04.617Z,12.83
2017-06-24T00:15:30.921Z,12.90
2017-06-24T00:17:57.975Z,17.20
2017-06-24T00:20:25.070Z,15.90
2017-06-24T00:22:51.760Z,13.80
2017-06-24T00:25:18.813Z,14.10
2017-06-24T00:27:45.117Z,13.80
2017-06-24T00:30:11.418Z,11.20
2017-06-24T00:32:37.717Z,12.60
2017-06-24T00:35:04.057Z,13.73
2017-06-24T00:37:30.365Z,18.93
2017-06-24T00:39:56.673Z,14.27
2017-06-24T00:42:24.746Z,17.00
2017-06-24T00:44:51.047Z,12.40
2017-06-24T00:47:17.354Z,12.13
2017-06-24T00:49:43.645Z,11.10
2017-06-24T00:52:10.685Z,13.93
2017-06-24T00:54:36.990Z,13.73
2017-06-24T00:57:03.283Z,15.40
2017-06-24T00:59:29.591Z,15.80
2017-06-24T01:01:55.916Z,11.73
2017-06-24T01:04:22.213Z,14.70
2017-06-24T01:06:48.513Z,17.00
2017-06-24T01:09:15.877Z,16.70
2017-06-24T01:11:42.192Z,13.33
2017-06-24T01:14:08.558Z,16.63
2017-06-24T01:16:34.861Z,13.50
2017-06-24T01:19:01.213Z,15.40
2017-06-24T01:21:27.522Z,16.57
2017-06-24T01:23:53.838Z,14.20
2017-06-24T01:26:20.143Z,16.03
2017-06-24T01:28:46.483Z,19.73
2017-06-24T01:31:12.805Z,16.30
2017-06-24T01:33:39.132Z,14.30
2017-06-24T01:36:05.439Z,14.87
2017-06-24T01:38:32.496Z,13.57
2017-06-24T01:40:59.581Z,16.70
2017-06-24T01:43:25.907Z,17.30
2017-06-24T01:45:52.653Z,13.57
2017-06-24T01:48:18.962Z,15.33
2017-06-24T01:50:45.297Z,16.47
2017-06-24T01:53:11.634Z,14.97
2017-06-24T01:55:37.968Z,13.07
2017-06-24T01:58:04.269Z,15.80
2017-06-24T02:00:30.561Z,14.00
2017-06-24T02:02:56.857Z,16.40
2017-06-24T02:05:23.193Z,16.00
2017-06-24T02:07:49.516Z,16.00
2017-06-24T02:10:15.825Z,22.20
2017-06-24T02:12:42.152Z,22.90
2017-06-24T02:15:08.480Z,12.97
2017-06-24T02:17:34.787Z,16.63
2017-06-24T02:20:01.089Z,23.47
2017-06-24T02:22:27.408Z,16.33
2017-06-24T02:24:53.711Z,16.47
2017-06-24T02:27:21.017Z,16.47
2017-06-24T02:29:47.317Z,13.50
2017-06-24T02:32:13.625Z,17.77
2017-06-24T02:34:40.039Z,14.10
2017-06-24T02:37:06.350Z,16.30
2017-06-24T02:39:32.689Z,16.43
2017-06-24T02:41:59.735Z,16.63
2017-06-24T02:44:26.772Z,16.50
2017-06-24T02:46:53.818Z,14.83
2017-06-24T02:49:20.133Z,15.90
2017-06-24T02:51:46.433Z,16.53
2017-06-24T02:54:12.735Z,13.80
2017-06-24T02:56:40.046Z,14.33
2017-06-24T02:59:06.357Z,17.37
2017-06-24T03:01:32.645Z,14.93
2017-06-24T03:03:59.956Z,17.27
2017-06-24T03:06:26.257Z,16.40
2017-06-24T03:08:52.549Z,17.40
2017-06-24T03:11:18.842Z,14.67
2017-06-24T03:13:45.165Z,15.50
2017-06-24T03:16:11.473Z,14.53
2017-06-24T03:18:37.781Z,17.33
2017-06-24T03:21:04.088Z,13.47
2017-06-24T03:23:32.150Z,13.77
2017-06-24T03:25:58.453Z,13.80
2017-06-24T03:28:24.768Z,14.23
2017-06-24T03:30:51.061Z,12.30
2017-06-24T03:33:17.365Z,12.80
2017-06-24T03:35:44.663Z,15.23
2017-06-24T03:38:10.971Z,12.93
2017-06-24T03:40:37.271Z,14.30
2017-06-24T03:43:03.565Z,19.27
2017-06-24T03:45:29.865Z,12.30
2017-06-24T03:47:56.178Z,11.60
2017-06-24T03:50:23.277Z,11.73
2017-06-24T03:52:49.584Z,12.00
2017-06-24T03:55:15.889Z,14.77
2017-06-24T03:57:42.933Z,13.50
2017-06-24T04:00:09.988Z,13.40
2017-06-24T04:02:36.301Z,13.20
2017-06-24T04:05:03.359Z,17.30
2017-06-24T04:07:29.667Z,13.90
2017-06-24T04:09:55.961Z,13.90
2017-06-24T04:12:22.257Z,14.27
2017-06-24T04:14:48.561Z,13.60
2017-06-24T04:17:14.870Z,13.43
2017-06-24T04:19:41.177Z,16.10
2017-06-24T04:22:07.487Z,13.93
2017-06-24T04:24:33.786Z,13.60
2017-06-24T04:27:00.820Z,11.90
2017-06-24T04:29:27.125Z,13.87
2017-06-24T04:31:53.437Z,13.83
2017-06-24T04:34:19.746Z,11.63
2017-06-24T04:36:46.044Z,12.47
2017-06-24T04:39:12.358Z,14.20
2017-06-24T04:41:38.661Z,12.90
2017-06-24T04:44:04.968Z,13.73
2017-06-24T04:46:32.284Z,13.43
2017-06-24T04:48:58.605Z,17.43
2017-06-24T04:51:24.910Z,14.43
2017-06-24T04:53:52.208Z,12.80
2017-06-24T04:56:19.242Z,13.67
2017-06-24T04:58:45.546Z,14.03
2017-06-24T05:01:11.853Z,12.97
2017-06-24T05:03:38.157Z,13.10
2017-06-24T05:06:05.805Z,15.17
2017-06-24T05:08:32.835Z,14.60
2017-06-24T05:10:59.153Z,12.40
2017-06-24T05:13:25.521Z,13.77
2017-06-24T05:15:51.829Z,14.33
2017-06-24T05:18:18.163Z,15.33
2017-06-24T05:20:45.554Z,12.93
2017-06-24T05:23:11.866Z,12.67
2017-06-24T05:25:38.905Z,12.30
2017-06-24T05:28:05.929Z,13.27
2017-06-24T05:30:32.225Z,10.90
2017-06-24T05:32:58.501Z,10.57
2017-06-24T05:35:24.807Z,10.03
2017-06-24T05:37:51.105Z,13.70
2017-06-24T05:40:17.429Z,10.43
2017-06-24T05:42:43.727Z,10.33
2017-06-24T05:45:10.780Z,10.37
2017-06-24T05:47:37.077Z,11.40
2017-06-24T05:50:03.377Z,9.97
2017-06-24T05:52:30.706Z,14.50
2017-06-24T05:54:57.001Z,11.70
2017-06-24T05:57:24.333Z,10.20
2017-06-24T05:59:50.645Z,10.77
2017-06-24T06:02:16.953Z,10.83
2017-06-24T06:04:43.241Z,11.50
2017-06-24T06:07:09.549Z,11.43
2017-06-24T06:09:35.882Z,11.27
2017-06-24T06:12:02.170Z,10.30
2017-06-24T06:14:28.477Z,11.13
2017-06-24T06:16:55.517Z,13.63
2017-06-24T06:19:21.813Z,11.63
2017-06-24T06:21:48.108Z,10.23
2017-06-24T06:24:14.413Z,14.50
2017-06-24T06:26:41.450Z,11.00
2017-06-24T06:29:08.494Z,11.40
2017-06-24T06:31:35.530Z,11.73
2017-06-24T06:34:01.849Z,10.53
2017-06-24T06:36:28.137Z,16.00
2017-06-24T06:38:54.437Z,11.10
2017-06-24T06:41:21.473Z,12.10
2017-06-24T06:43:47.778Z,11.67
2017-06-24T06:46:14.086Z,10.10
2017-06-24T06:48:40.415Z,10.17
2017-06-24T06:51:06.740Z,10.17
2017-06-24T06:53:33.053Z,12.17
2017-06-24T06:56:00.356Z,11.67
2017-06-24T06:58:26.652Z,11.67
2017-06-24T07:00:52.945Z,14.53
2017-06-24T07:03:19.981Z,10.97
2017-06-24T07:05:46.285Z,10.87
2017-06-24T07:08:12.589Z,10.53
2017-06-24T07:10:38.877Z,11.83
2017-06-24T07:13:05.933Z,10.60
2017-06-24T07:15:32.985Z,9.70
2017-06-24T07:17:59.290Z,9.73
2017-06-24T07:20:25.589Z,10.10
2017-06-24T07:22:51.909Z,10.80
2017-06-24T07:25:18.212Z,10.53
2017-06-24T07:27:44.516Z,10.13
2017-06-24T07:30:10.825Z,10.20
2017-06-24T07:32:37.534Z,10.00
2017-06-24T07:35:03.842Z,9.17
2017-06-24T07:37:30.137Z,9.70
2017-06-24T07:39:57.177Z,11.30
2017-06-24T07:42:23.472Z,9.97
2017-06-24T07:44:49.766Z,9.90
2017-06-24T07:47:16.066Z,10.20
2017-06-24T07:49:42.370Z,12.67
2017-06-24T07:52:08.665Z,12.57
2017-06-24T07:54:34.977Z,9.30
2017-06-24T07:57:02.013Z,10.40
2017-06-24T07:59:29.063Z,12.73
2017-06-24T08:01:57.121Z,11.07
2017-06-24T08:04:24.162Z,9.60
2017-06-24T08:06:50.460Z,15.40
2017-06-24T08:09:16.767Z,10.10
2017-06-24T08:11:43.076Z,11.03
2017-06-24T08:14:09.380Z,12.13
2017-06-24T08:16:35.677Z,12.40
2017-06-24T08:19:01.982Z,8.90
2017-06-24T08:21:28.269Z,10.33
2017-06-24T08:23:54.572Z,10.77
2017-06-24T08:26:20.901Z,11.73
2017-06-24T08:28:47.201Z,10.43
2017-06-24T08:31:13.505Z,11.47
2017-06-24T08:33:40.576Z,11.30
2017-06-24T08:36:06.885Z,10.20
2017-06-24T08:38:33.917Z,9.33
2017-06-24T08:41:00.953Z,8.63
2017-06-24T08:43:27.252Z,9.40
2017-06-24T08:45:53.553Z,17.23
2017-06-24T08:48:19.845Z,8.67
2017-06-24T08:50:46.165Z,9.83
2017-06-24T08:53:13.204Z,9.80
2017-06-24T08:55:39.502Z,9.10
2017-06-24T08:58:05.790Z,10.03
2017-06-24T09:00:32.076Z,10.13
2017-06-24T09:02:58.704Z,10.73
2017-06-24T09:05:25.032Z,12.57
2017-06-24T09:07:51.334Z,10.63
2017-06-24T09:10:17.629Z,9.07
2017-06-24T09:12:43.942Z,9.13
2017-06-24T09:15:10.239Z,13.63
2017-06-24T09:17:36.541Z,13.83
2017-06-24T09:20:02.841Z,9.80
2017-06-24T09:22:29.146Z,10.17
2017-06-24T09:24:55.436Z,9.67
2017-06-24T09:27:22.483Z,10.50
2017-06-24T09:29:49.525Z,11.57
2017-06-24T09:32:16.561Z,10.00
2017-06-24T09:34:43.601Z,11.77
2017-06-24T09:37:09.903Z,11.43
2017-06-24T09:39:36.205Z,11.37
2017-06-24T09:42:02.501Z,13.43
2017-06-24T09:44:30.554Z,11.47
2017-06-24T09:46:56.841Z,10.43
2017-06-24T09:49:23.154Z,10.37
2017-06-24T09:51:49.450Z,13.47
2017-06-24T09:54:15.771Z,12.90
2017-06-24T09:56:42.065Z,11.30
2017-06-24T09:59:08.397Z,10.53
2017-06-24T10:01:35.790Z,12.40
2017-06-24T10:04:02.106Z,12.03
2017-06-24T10:06:28.411Z,11.33
2017-06-24T10:08:54.705Z,12.93
2017-06-24T10:11:20.997Z,15.43
2017-06-24T10:13:47.298Z,12.67
2017-06-24T10:16:13.594Z,11.53
2017-06-24T10:18:39.885Z,10.97
2017-06-24T10:21:06.197Z,14.40
2017-06-24T10:23:32.497Z,12.70
2017-06-24T10:25:58.790Z,13.37
2017-06-24T10:28:25.836Z,15.77
2017-06-24T10:30:52.138Z,15.90
2017-06-24T10:33:18.443Z,14.33
2017-06-24T10:35:44.761Z,13.10
2017-06-24T10:38:11.069Z,18.00
2017-06-24T10:40:38.373Z,13.80
2017-06-24T10:43:04.665Z,12.83
2017-06-24T10:45:31.953Z,14.50
2017-06-24T10:47:58.273Z,12.50
2017-06-24T10:50:24.582Z,13.40
2017-06-24T10:52:50.877Z,14.30
2017-06-24T10:55:17.189Z,13.60
2017-06-24T10:57:43.490Z,13.60
2017-06-24T11:00:09.785Z,14.13
2017-06-24T11:02:38.154Z,13.87
2017-06-24T11:05:05.190Z,13.30
2017-06-24T11:07:31.742Z,15.27
2017-06-24T11:09:58.125Z,14.87
2017-06-24T11:12:24.422Z,14.87
2017-06-24T11:14:50.714Z,14.53
2017-06-24T11:17:17.753Z,13.53
2017-06-24T11:19:44.057Z,13.23
2017-06-24T11:22:10.377Z,14.70
2017-06-24T11:24:36.674Z,17.63
2017-06-24T11:27:02.989Z,14.37
2017-06-24T11:29:30.025Z,13.43
2017-06-24T11:31:56.324Z,13.30
2017-06-24T11:34:22.608Z,13.80
2017-06-24T11:36:48.914Z,13.77
2017-06-24T11:39:15.945Z,14.23
2017-06-24T11:41:42.255Z,13.03
2017-06-24T11:44:08.576Z,13.47
2017-06-24T11:46:34.894Z,13.20
2017-06-24T11:49:01.198Z,12.70
2017-06-24T11:51:27.502Z,12.13
2017-06-24T11:53:53.806Z,13.33
2017-06-24T11:56:20.114Z,12.90
2017-06-24T11:58:46.433Z,12.20
2017-06-24T12:01:12.729Z,13.33
2017-06-24T12:03:40.050Z,13.67
2017-06-24T12:06:06.337Z,12.20
2017-06-24T12:08:32.639Z,13.97
2017-06-24T12:10:59.681Z,14.30
2017-06-24T12:13:25.990Z,12.20
2017-06-24T12:15:52.281Z,12.63
2017-06-24T12:18:18.584Z,12.23
2017-06-24T12:20:45.618Z,12.53
2017-06-24T12:23:11.918Z,14.23
2017-06-24T12:25:38.223Z,12.87
2017-06-24T12:28:05.529Z,13.13
2017-06-24T12:30:32.872Z,13.27
2017-06-24T12:32:59.173Z,13.90
2017-06-24T12:35:25.497Z,14.70
2017-06-24T12:37:51.801Z,13.17
2017-06-24T12:40:18.094Z,18.40
2017-06-24T12:42:44.398Z,17.10
2017-06-24T12:45:10.698Z,15.00
2017-06-24T12:47:36.994Z,13.90
2017-06-24T12:50:03.281Z,14.83
2017-06-24T12:52:29.570Z,14.20
2017-06-24T12:54:56.609Z,16.67
2017-06-24T12:57:22.910Z,13.80
2017-06-24T12:59:50.198Z,13.00
2017-06-24T13:02:17.510Z,12.83
2017-06-24T13:04:43.833Z,15.93
2017-06-24T13:07:10.129Z,15.17
2017-06-24T13:09:36.426Z,14.87
2017-06-24T13:12:03.477Z,14.73
2017-06-24T13:14:30.522Z,15.47
2017-06-24T13:16:57.573Z,15.57
2017-06-24T13:19:23.869Z,15.53
2017-06-24T13:21:50.166Z,14.03
2017-06-24T13:24:16.465Z,15.63
2017-06-24T13:26:42.765Z,16.33
2017-06-24T13:29:09.065Z,15.80
2017-06-24T13:31:36.405Z,16.27
2017-06-24T13:34:02.709Z,15.40
2017-06-24T13:36:29.005Z,16.53
2017-06-24T13:38:55.308Z,14.97
2017-06-24T13:41:21.612Z,15.87
2017-06-24T13:43:47.905Z,17.80
2017-06-24T13:46:14.209Z,16.17
2017-06-24T13:48:40.502Z,17.23
2017-06-24T13:51:06.810Z,17.00
2017-06-24T13:53:33.837Z,17.60
2017-06-24T13:56:00.144Z,17.30
2017-06-24T13:58:26.444Z,17.80
2017-06-24T14:00:52.745Z,16.37
2017-06-24T14:03:20.098Z,16.53
2017-06-24T14:05:47.130Z,18.07
2017-06-24T14:08:13.420Z,17.00
2017-06-24T14:10:39.713Z,16.80
2017-06-24T14:13:06.001Z,16.13
2017-06-24T14:15:32.305Z,15.80
2017-06-24T14:17:58.597Z,19.93
2017-06-24T14:20:25.638Z,16.00
2017-06-24T14:22:52.857Z,15.43
2017-06-24T14:25:19.154Z,15.27
2017-06-24T14:27:45.446Z,15.00
2017-06-24T14:30:11.749Z,16.03
2017-06-24T14:32:38.065Z,14.47
2017-06-24T14:35:04.385Z,14.77
2017-06-24T14:37:30.685Z,14.70
2017-06-24T14:39:58.010Z,15.07
2017-06-24T14:42:25.517Z,15.40
2017-06-24T14:44:51.810Z,14.30
2017-06-24T14:47:18.109Z,13.93
2017-06-24T14:49:44.410Z,16.50
2017-06-24T14:52:10.710Z,14.03
2017-06-24T14:54:37.001Z,14.83
2017-06-24T14:57:03.303Z,14.10
2017-06-24T14:59:29.625Z,17.00
2017-06-24T15:01:56.929Z,15.20
2017-06-24T15:04:23.969Z,14.10
2017-06-24T15:06:51.009Z,13.23
2017-06-24T15:09:17.310Z,13.40
2017-06-24T15:11:43.611Z,14.00
2017-06-24T15:14:09.913Z,13.93
2017-06-24T15:16:36.970Z,13.87
2017-06-24T15:19:03.277Z,13.00
2017-06-24T15:21:29.602Z,12.80
2017-06-24T15:23:55.895Z,13.60
2017-06-24T15:26:22.197Z,13.00
2017-06-24T15:28:48.489Z,13.13
2017-06-24T15:31:15.801Z,12.73
2017-06-24T15:33:42.100Z,12.77
2017-06-24T15:36:08.392Z,13.60
2017-06-24T15:38:34.701Z,12.30
2017-06-24T15:41:00.989Z,14.67
2017-06-24T15:43:27.293Z,11.63
2017-06-24T15:45:53.594Z,12.50
2017-06-24T15:48:19.897Z,12.23
2017-06-24T15:50:46.198Z,13.00
2017-06-24T15:53:12.489Z,13.27
2017-06-24T15:55:38.776Z,15.80
2017-06-24T15:58:05.077Z,13.37
2017-06-24T16:00:32.398Z,13.27
2017-06-24T16:02:58.958Z,12.73
2017-06-24T16:05:25.263Z,14.03
2017-06-24T16:07:51.560Z,14.40
2017-06-24T16:10:17.853Z,12.73
2017-06-24T16:12:44.901Z,14.20
2017-06-24T16:15:11.942Z,13.93
2017-06-24T16:17:38.242Z,13.23
2017-06-24T16:20:04.552Z,14.43
2017-06-24T16:22:30.849Z,12.67
2017-06-24T16:24:57.149Z,12.30
2017-06-24T16:27:23.445Z,14.03
2017-06-24T16:29:49.745Z,15.13
2017-06-24T16:32:16.032Z,13.87
2017-06-24T16:34:42.333Z,12.93
2017-06-24T16:37:08.625Z,15.23
2017-06-24T16:39:34.933Z,15.00
2017-06-24T16:42:01.237Z,14.73
2017-06-24T16:44:27.533Z,13.50
2017-06-24T16:46:53.834Z,13.47
2017-06-24T16:49:20.885Z,13.57
2017-06-24T16:51:47.929Z,14.40
2017-06-24T16:54:14.233Z,15.20
2017-06-24T16:56:40.529Z,15.67
2017-06-24T16:59:06.830Z,12.73
2017-06-24T17:01:33.458Z,13.90
2017-06-24T17:03:59.758Z,12.53
2017-06-24T17:06:26.053Z,12.40
2017-06-24T17:08:52.342Z,13.50
2017-06-24T17:11:18.654Z,14.60
2017-06-24T17:13:44.949Z,14.33
2017-06-24T17:16:11.249Z,14.80
2017-06-24T17:18:37.577Z,14.87
2017-06-24T17:21:03.873Z,15.30
2017-06-24T17:23:31.185Z,16.67
2017-06-24T17:25:57.480Z,16.40
2017-06-24T17:28:24.518Z,14.37
2017-06-24T17:30:50.805Z,14.47
2017-06-24T17:33:17.105Z,13.33
2017-06-24T17:35:43.498Z,14.23
2017-06-24T17:38:09.792Z,15.33
2017-06-24T17:40:36.094Z,13.77
2017-06-24T17:43:02.390Z,14.23
2017-06-24T17:45:29.690Z,14.13
2017-06-24T17:47:56.975Z,13.77
2017-06-24T17:50:23.274Z,13.90
2017-06-24T17:52:49.577Z,16.47
2017-06-24T17:55:16.327Z,14.30
2017-06-24T17:57:43.010Z,14.57
2017-06-24T18:00:09.317Z,14.87
2017-06-24T18:02:35.912Z,12.83
2017-06-24T18:05:02.222Z,14.70
2017-06-24T18:07:28.538Z,12.90
2017-06-24T18:09:54.841Z,13.70
2017-06-24T18:12:21.144Z,14.50
2017-06-24T18:14:47.451Z,13.13
2017-06-24T18:17:14.530Z,14.30
2017-06-24T18:19:40.830Z,13.27
2017-06-24T18:22:07.866Z,14.37
2017-06-24T18:24:34.970Z,14.00
2017-06-24T18:27:01.765Z,14.50
2017-06-24T18:29:28.085Z,13.57
2017-06-24T18:31:54.377Z,13.63
2017-06-24T18:34:20.677Z,14.33
2017-06-24T18:36:46.971Z,14.00
2017-06-24T18:39:13.269Z,14.17
2017-06-24T18:41:39.566Z,14.90
2017-06-24T18:44:05.866Z,12.50
2017-06-24T18:46:33.226Z,16.73
2017-06-24T18:48:59.863Z,14.53
2017-06-24T18:51:26.913Z,13.40
2017-06-24T18:53:54.929Z,13.67
2017-06-24T18:56:21.485Z,16.07
2017-06-24T18:58:48.785Z,15.03
2017-06-24T19:01:16.079Z,13.57
2017-06-24T19:03:44.131Z,14.10
2017-06-24T19:06:10.446Z,14.23
2017-06-24T19:08:37.067Z,13.10
2017-06-24T19:11:03.919Z,16.30
2017-06-24T19:13:30.217Z,14.40
2017-06-24T19:15:57.262Z,14.90
2017-06-24T19:18:23.553Z,14.93
2017-06-24T19:20:51.266Z,13.97
2017-06-24T19:23:19.466Z,14.20
2017-06-24T19:25:45.777Z,14.10
2017-06-24T19:50:51.163Z,14.30
2017-06-24T19:53:18.165Z,17.03
2017-06-24T19:55:44.425Z,14.20
2017-06-24T19:58:12.841Z,13.63
2017-06-24T20:00:39.120Z,15.00
2017-06-24T20:03:05.386Z,15.30
2017-06-24T20:05:32.817Z,13.63
2017-06-24T20:07:59.812Z,14.73
2017-06-24T20:10:26.083Z,15.47
2017-06-24T20:12:52.643Z,15.13
2017-06-24T20:15:18.905Z,14.87
2017-06-24T20:17:45.169Z,15.00
2017-06-24T20:20:11.770Z,17.23
2017-06-24T20:22:38.037Z,15.93
2017-06-24T20:25:04.302Z,13.90
2017-06-24T20:27:32.193Z,14.97
2017-06-24T20:29:58.453Z,15.30
2017-06-24T20:32:24.728Z,15.60
2017-06-24T20:34:51.448Z,15.70
2017-06-24T20:37:18.449Z,16.73
2017-06-24T20:39:44.702Z,15.90
2017-06-24T20:42:11.492Z,17.30
2017-06-24T20:44:37.773Z,16.20
2017-06-24T20:47:04.039Z,21.50
2017-06-24T20:49:30.669Z,16.27
2017-06-24T20:51:56.971Z,18.27
2017-06-24T20:54:24.018Z,16.57
2017-06-24T20:56:50.609Z,18.80
2017-06-24T20:59:16.870Z,18.90
2017-06-24T21:01:43.135Z,23.03
2017-06-24T21:04:09.419Z,15.50
2017-06-24T21:06:35.713Z,16.27
2017-06-24T21:09:02.044Z,20.13
2017-06-24T21:11:28.313Z,17.13
2017-06-24T21:13:55.917Z,16.53
2017-06-24T21:16:22.181Z,17.77
2017-06-24T21:18:48.445Z,17.40
2017-06-24T21:21:14.730Z,17.27
2017-06-24T21:23:40.987Z,18.37
2017-06-24T21:26:07.252Z,17.13
2017-06-24T21:28:35.333Z,18.10
2017-06-24T21:31:01.594Z,19.80
2017-06-24T21:33:27.869Z,22.10
2017-06-24T21:35:55.245Z,19.23
2017-06-24T21:38:21.513Z,25.23
2017-06-24T21:40:48.447Z,15.60
2017-06-24T21:43:14.737Z,19.90
2017-06-24T21:45:41.750Z,18.23
2017-06-24T21:48:09.073Z,18.23
2017-06-24T21:50:35.333Z,22.97
2017-06-24T21:53:01.609Z,17.83
2017-06-24T21:55:27.884Z,17.23
2017-06-24T21:57:54.153Z,17.40
2017-06-24T22:00:21.608Z,18.00
2017-06-24T22:02:47.881Z,17.73
2017-06-24T22:05:14.145Z,18.50
2017-06-24T22:07:40.417Z,17.77
2017-06-24T22:10:06.677Z,20.73
2017-06-24T22:12:33.258Z,18.77
2017-06-24T22:15:00.277Z,17.87
2017-06-24T22:17:26.545Z,19.07
2017-06-24T22:19:52.857Z,18.50
2017-06-24T22:22:19.890Z,17.57
2017-06-24T22:24:46.450Z,18.50
2017-06-24T22:27:12.716Z,20.60
2017-06-24T22:29:38.978Z,18.77
2017-06-24T22:32:05.237Z,18.77
2017-06-24T22:34:31.505Z,19.13
2017-06-24T22:36:58.097Z,18.77
2017-06-24T22:39:25.114Z,19.40
2017-06-24T22:41:51.398Z,20.20
2017-06-24T22:44:17.674Z,20.17
2017-06-24T22:46:43.950Z,19.17
2017-06-24T22:49:10.569Z,23.07
2017-06-24T22:51:36.837Z,18.30
2017-06-24T22:54:03.110Z,17.80
2017-06-24T22:56:30.129Z,19.27
2017-06-24T22:58:56.398Z,17.40
2017-06-24T23:01:23.754Z,17.97
2017-06-24T23:03:50.942Z,20.70
2017-06-24T23:06:17.240Z,18.80
2017-06-24T23:08:43.510Z,19.73
2017-06-24T23:11:09.856Z,17.57
2017-06-24T23:13:36.476Z,17.80
2017-06-24T23:16:02.757Z,20.97
2017-06-24T23:18:29.765Z,19.17
2017-06-24T23:20:56.034Z,17.70
2017-06-24T23:23:23.042Z,19.67
2017-06-24T23:25:49.612Z,19.33
2017-06-24T23:28:16.933Z,18.37
2017-06-24T23:30:43.189Z,21.03
2017-06-24T23:33:10.193Z,20.43
2017-06-24T23:35:36.490Z,21.13
2017-06-24T23:38:03.902Z,19.83
2017-06-24T23:40:30.161Z,20.50
2017-06-24T23:42:56.429Z,20.63
2017-06-24T23:45:22.714Z,20.17
2017-06-24T23:47:48.989Z,19.73
2017-06-24T23:50:16.324Z,21.03
2017-06-24T23:52:42.593Z,20.90
2017-06-24T23:55:08.859Z,21.00
2017-06-24T23:57:35.123Z,21.20
